ADDS METAR Data INFO
IDs: Format: Raw Decoded Include TAF

Data at: 1414 UTC 12 Dec 2017

PABT 121353Z 32004KT 10SM FEW028 OVC055 M07/M09 A2971 RMK AO2 SLP078 T10671089
PABT 121253Z 32005KT 10SM FEW041 FEW100 M07/M09 A2971 RMK AO2 SLP077 T10721089
PABT 121153Z COR 00000KT 10SM FEW041 FEW100 M08/M09 A2969 RMK AO2 SLP071 60000 70018 931000 4/025 T10781094 11039 21078 51005
PABT 121053Z 00000KT 10SM SCT041 BKN150 M05/M07 A2968 RMK AO2 SLP067 T10501072
PABT 120953Z 00000KT 10SM BKN038 OVC100 M04/M06 A2968 RMK AO2 SNE25 SLP065 T10441061
PABT 120853Z COR 00000KT 4SM -SN BR SCT020 OVC050 M04/M06 A2967 RMK AO2 SLP062 60000 931001 T10441061 400111116 53015
PABT 120800Z 00000KT 4SM -SN BR SCT020 OVC050 M04/M06 A2966 RMK AO2 T10441061
PABT 120753Z 00000KT 4SM -SN BR BKN020 OVC050 M04/M06 A2966 RMK AO2 SLP057 T10441061
PABT 120653Z 32003KT 3SM -SN BR OVC015 M04/M06 A2963 RMK AO2 SLP048 T10441061
PABT 120650Z 32003KT 3SM -SN BR OVC015 M04/M06 A2963 RMK AO2
PABT 120553Z 00000KT 3SM -SN BR OVC012 M04/M06 A2960 RMK AO2 SLP038 60014 931016 4/025 T10441061 11039 21050 52019
PABT 120537Z 00000KT 3SM -SN BR OVC012 M04/M06 A2960 RMK AO2 T10441061
PABT 120530Z 00000KT 2 1/2SM -SN BR OVC012 M04/M07 A2959 RMK AO2 T10441067
PABT 120506Z 36003KT 3SM -SN BR OVC012 M04/M07 A2958 RMK AO2 T10441067
PABT 120453Z 00000KT 2SM -SN BR OVC012 M04/M06 A2957 RMK AO2 SLP028 T10441061
PABT 120439Z 00000KT 3/4SM -SN BR OVC012 M04/M06 A2957 RMK AO2 T10441061
PABT 120353Z 00000KT 1 1/4SM -SN BR OVC012 M04/M07 A2954 RMK AO2 SLP018 T10441067
PABT 120330Z 00000KT 1 1/4SM -SN BR OVC012 M05/M07 A2953 RMK AO2 T10501067
PABT 120323Z 34004KT 3/4SM -SN BR OVC012 M05/M07 A2953 RMK AO2 T10501067
PABT 120300Z 36003KT 1 1/2SM -SN BR OVC012 M04/M07 A2951 RMK AO2 T10441067
PABT 120253Z 36003KT 2SM -SN BR OVC012 M04/M07 A2951 RMK AO2 SLP007 60006 931008 T10441067 53021
PABT 120225Z 01003KT 1SM -SN BR OVC012 M04/M07 A2950 RMK AO2 T10441067
PABT 120153Z 33003KT 1 1/4SM -SN BR OVC018 M04/M07 A2949 RMK AO2 SLP000 T10441067
PABT 120146Z 00000KT 1 1/4SM -SN BR OVC018 M04/M07 A2948 RMK AO2 T10441067
PABT 120132Z 00000KT 2SM -SN BR OVC023 M04/M07 A2948 RMK AO2 T10441067
PABT 120053Z 00000KT 3SM -SN BR OVC027 M04/M06 A2945 RMK AO2 SLP987 T10441061
PABT 120049Z 34003KT 3SM -SN BR OVC027 M04/M06 A2945 RMK AO2
PABT 120000Z 00000KT 2SM -SN BR OVC024 M04/M06 A2943 RMK AO2 T10391061
PABT 112353Z 00000KT 1 1/2SM -SN BR OVC024 M04/M06 A2943 RMK AO2 SLP979 60001 931002 4/023 T10441061 10011 21044 51039
PABT 112340Z 34003KT 1SM -SN BR OVC024 M04/M06 A2942 RMK AO2 T10391061
PABT 112323Z 32004KT 1SM -SN BR BKN036 OVC044 M04/M06 A2941 RMK AO2 T10391061
PABT 112253Z 30005KT 10SM -SN FEW032 SCT044 OVC065 M03/M06 A2940 RMK AO2 SNB40 SLP969 T10331061
PABT 112153Z 03005KT 10SM FEW032 SCT044 OVC070 00/M03 A2935 RMK AO2 SLP955 SHSN VC W T00001033
PABT 112053Z 03006KT 10SM FEW030 SCT044 OVC075 00/M03 A2931 RMK AO2 SLP941 SHSN DSNT W 60000 931000 T00001033 53015
PABT 111953Z 04007KT 10SM SCT030 BKN038 01/M03 A2929 RMK AO2 SNE44 SLP933 SHSN DSNT N AND VC SW-NW T00061033
PABT 111853Z 04009KT 6SM -SN BR OVC032 01/M03 A2927 RMK AO2 SLP927 T00061028
PABT 111753Z 05005KT 4SM -SN BR OVC031 00/M02 A2927 RMK AO2 SLP925 60003 931004 4/022 T00001017 10000 21028 53001
PABT 111738Z 04007KT 4SM -SN BR OVC031 00/M02 A2926 RMK AO2 T00001017
PABT 111715Z 03008KT 2SM -SN BR OVC024 00/M02 A2926 RMK AO2 T00001022
PABT 111653Z 03007KT 1 1/2SM -SN BR OVC024 00/M02 A2925 RMK AO2 SLP922 T00001022
PABT 111638Z 32005KT 1 1/2SM -SN BR OVC024 M03/M05 A2926 RMK AO2 T10281050
PABT 111606Z 02007KT 5SM -SN BR OVC029 00/M03 A2926 RMK AO2 PCPN VRY LGT T00001028
PABT 111553Z 02007KT 5SM -SN BR OVC031 00/M03 A2926 RMK AO2 SLP924 T00001028
PABT 111453Z 04014G21KT 3SM -SN BR OVC032 M01/M03 A2926 RMK AO2 SLP925 60002 931003 T10061028 56030
PABT 111439Z 04014G22KT 1SM -SN BR OVC032 M01/M03 A2927 RMK AO2 T10111028
PABT 111417Z 05013G20KT 1SM -SN BR BKN024 OVC034 M01/M03 A2929 RMK AO2 T10111028
PABT 111401Z 03013KT 3/4SM -SN BR BKN020 OVC034 M01/M03 A2930 RMK AO2 T10111033
PABT 111353Z 03013G16KT 1SM -SN BR BKN020 OVC034 M01/M03 A2930 RMK AO2 SNB14 SLP938 T10111033
PABT 111342Z 04010KT 2SM -SN BR BKN028 OVC036 M01/M04 A2931 RMK AO2 SNB14 T10111039
PABT 111253Z 02010KT 10SM OVC085 M01/M05 A2936 RMK AO2 SLP955 T10061050
PABT 111153Z 04011G16KT 10SM FEW100 OVC150 M01/M05 A2940 RMK AO2 SLP973 4/022 T10061050 11006 21100 56040
PABT 111053Z 01006KT 10SM SCT100 OVC150 M04/M08 A2941 RMK AO2 SLP977 T10441078
PABT 110953Z 34003KT 10SM SCT080 OVC200 M09/M11 A2949 RMK AO2 SLP002 T10891111
PABT 110853Z COR 00000KT 10SM OVC200 M09/M12 A2952 RMK AO2 SLP015 T10941122 410721133 58044
PABT 110753Z 36003KT 10SM BKN080 OVC200 M09/M12 A2958 RMK AO2 SLP034 T10941117
PABT 110653Z 00000KT 10SM FEW043 SCT060 OVC075 M08/M11 A2964 RMK AO2 SLP055 T10831111
PABT 110553Z 00000KT 10SM OVC035 M08/M11 A2966 RMK AO2 SLP060 4/022 T10831111 11078 21094 56014
PABT 110453Z 00000KT 10SM BKN034 OVC075 M09/M12 A2966 RMK AO2 SLP063 T10941117
PABT 110353Z 33003KT 10SM BKN033 OVC040 M08/M11 A2968 RMK AO2 SLP068 T10781106
PABT 110253Z 03003KT 10SM FEW033 OVC095 M08/M11 A2970 RMK AO2 SLP074 T10831111 56009